sensor_id;sensor_type;location;lat;lon;timestamp;pressure;altitude;pressure_sealevel;temperature;humidity
56944;BME280;42848;42.524;12.052;2023-12-22T00:01:30;95681.53;;;7.95;100.00
56944;BME280;42848;42.524;12.052;2023-12-22T00:03:56;95671.41;;;7.92;100.00
56944;BME280;42848;42.524;12.052;2023-12-22T00:06:22;95663.56;;;8.20;100.00
56944;BME280;42848;42.524;12.052;2023-12-22T00:08:47;95656.38;;;8.03;100.00
56944;BME280;42848;42.524;12.052;2023-12-22T00:11:13;95655.19;;;7.92;100.00
56944;BME280;42848;42.524;12.052;2023-12-22T00:13:38;95655.78;;;8.18;100.00
56944;BME280;42848;42.524;12.052;2023-12-22T00:16:04;95664.09;;;8.13;100.00
56944;BME280;42848;42.524;12.052;2023-12-22T00:18:30;95669.13;;;8.23;100.00
56944;BME280;42848;42.524;12.052;2023-12-22T00:20:56;95671.59;;;8.28;100.00
56944;BME280;42848;42.524;12.052;2023-12-22T00:23:21;95675.84;;;8.17;100.00
56944;BME280;42848;42.524;12.052;2023-12-22T00:25:47;95662.50;;;8.12;100.00
56944;BME280;42848;42.524;12.052;2023-12-22T00:28:13;95657.38;;;8.19;100.00
56944;BME280;42848;42.524;12.052;2023-12-22T00:30:38;95653.81;;;8.27;100.00
56944;BME280;42848;42.524;12.052;2023-12-22T00:33:04;95649.88;;;8.25;100.00
56944;BME280;42848;42.524;12.052;2023-12-22T00:35:29;95642.31;;;8.31;100.00
56944;BME280;42848;42.524;12.052;2023-12-22T00:37:55;95633.63;;;8.25;100.00
56944;BME280;42848;42.524;12.052;2023-12-22T00:40:21;95621.66;;;8.35;100.00
56944;BME280;42848;42.524;12.052;2023-12-22T00:42:46;95632.47;;;8.35;100.00
56944;BME280;42848;42.524;12.052;2023-12-22T00:45:12;95636.53;;;8.41;100.00
56944;BME280;42848;42.524;12.052;2023-12-22T00:47:37;95654.72;;;8.32;100.00
56944;BME280;42848;42.524;12.052;2023-12-22T00:50:04;95669.25;;;8.06;100.00
56944;BME280;42848;42.524;12.052;2023-12-22T00:52:31;95671.13;;;8.35;100.00
56944;BME280;42848;42.524;12.052;2023-12-22T00:54:57;95679.25;;;8.26;100.00
56944;BME280;42848;42.524;12.052;2023-12-22T00:57:22;95686.03;;;7.91;100.00
56944;BME280;42848;42.524;12.052;2023-12-22T00:59:48;95696.28;;;8.06;100.00
56944;BME280;42848;42.524;12.052;2023-12-22T01:02:17;95690.03;;;7.85;100.00
56944;BME280;42848;42.524;12.052;2023-12-22T01:04:44;95697.41;;;7.76;100.00
56944;BME280;42848;42.524;12.052;2023-12-22T01:07:10;95697.03;;;7.86;100.00
56944;BME280;42848;42.524;12.052;2023-12-22T01:09:37;95690.97;;;7.89;100.00
56944;BME280;42848;42.524;12.052;2023-12-22T01:12:06;95695.19;;;7.78;100.00
56944;BME280;42848;42.524;12.052;2023-12-22T01:14:33;95674.66;;;7.77;100.00
56944;BME280;42848;42.524;12.052;2023-12-22T01:16:59;95676.50;;;8.14;100.00
56944;BME280;42848;42.524;12.052;2023-12-22T01:19:26;95659.94;;;8.16;100.00
56944;BME280;42848;42.524;12.052;2023-12-22T01:21:51;95652.50;;;8.34;100.00
56944;BME280;42848;42.524;12.052;2023-12-22T01:24:17;95647.88;;;8.34;100.00
56944;BME280;42848;42.524;12.052;2023-12-22T01:26:43;95646.72;;;8.23;100.00
56944;BME280;42848;42.524;12.052;2023-12-22T01:29:08;95653.13;;;8.31;100.00
56944;BME280;42848;42.524;12.052;2023-12-22T01:31:34;95644.78;;;8.23;100.00
56944;BME280;42848;42.524;12.052;2023-12-22T01:33:59;95639.72;;;8.43;100.00
56944;BME280;42848;42.524;12.052;2023-12-22T01:36:25;95648.19;;;8.12;100.00
56944;BME280;42848;42.524;12.052;2023-12-22T01:38:51;95647.34;;;7.99;100.00
56944;BME280;42848;42.524;12.052;2023-12-22T01:41:16;95637.22;;;7.96;100.00
56944;BME280;42848;42.524;12.052;2023-12-22T01:43:42;95635.03;;;7.89;100.00
56944;BME280;42848;42.524;12.052;2023-12-22T01:46:09;95637.34;;;7.79;100.00
56944;BME280;42848;42.524;12.052;2023-12-22T01:48:36;95625.19;;;7.85;100.00
56944;BME280;42848;42.524;12.052;2023-12-22T01:51:03;95622.25;;;7.78;100.00
56944;BME280;42848;42.524;12.052;2023-12-22T01:53:30;95630.34;;;7.78;100.00
56944;BME280;42848;42.524;12.052;2023-12-22T01:55:57;95619.50;;;7.86;100.00
56944;BME280;42848;42.524;12.052;2023-12-22T01:58:26;95612.47;;;7.64;100.00
56944;BME280;42848;42.524;12.052;2023-12-22T02:00:55;95618.88;;;7.81;100.00
56944;BME280;42848;42.524;12.052;2023-12-22T02:03:22;95623.75;;;8.08;100.00
56944;BME280;42848;42.524;12.052;2023-12-22T02:05:49;95621.00;;;7.96;100.00
56944;BME280;42848;42.524;12.052;2023-12-22T02:08:18;95597.63;;;8.12;100.00
56944;BME280;42848;42.524;12.052;2023-12-22T02:10:44;95581.69;;;8.19;100.00
56944;BME280;42848;42.524;12.052;2023-12-22T02:13:11;95581.94;;;8.26;100.00
56944;BME280;42848;42.524;12.052;2023-12-22T02:15:38;95577.28;;;8.15;100.00
56944;BME280;42848;42.524;12.052;2023-12-22T02:20:32;95577.94;;;7.91;100.00
56944;BME280;42848;42.524;12.052;2023-12-22T02:22:58;95585.91;;;8.08;100.00
56944;BME280;42848;42.524;12.052;2023-12-22T02:25:23;95564.31;;;7.87;100.00
56944;BME280;42848;42.524;12.052;2023-12-22T02:28:07;95561.94;;;7.86;100.00
56944;BME280;42848;42.524;12.052;2023-12-22T02:30:43;95564.72;;;7.98;100.00
56944;BME280;42848;42.524;12.052;2023-12-22T02:33:12;95574.19;;;7.83;100.00
56944;BME280;42848;42.524;12.052;2023-12-22T02:35:41;95571.50;;;7.83;100.00
56944;BME280;42848;42.524;12.052;2023-12-22T02:38:08;95585.38;;;7.94;100.00
56944;BME280;42848;42.524;12.052;2023-12-22T02:40:37;95585.00;;;7.62;100.00
56944;BME280;42848;42.524;12.052;2023-12-22T02:43:03;95587.88;;;7.57;100.00
56944;BME280;42848;42.524;12.052;2023-12-22T02:45:30;95592.50;;;7.57;100.00
56944;BME280;42848;42.524;12.052;2023-12-22T02:47:57;95583.16;;;7.54;100.00
56944;BME280;42848;42.524;12.052;2023-12-22T02:50:23;95581.50;;;7.62;100.00
56944;BME280;42848;42.524;12.052;2023-12-22T02:52:49;95582.38;;;7.95;100.00
56944;BME280;42848;42.524;12.052;2023-12-22T02:55:14;95576.06;;;7.70;100.00
56944;BME280;42848;42.524;12.052;2023-12-22T02:57:40;95583.56;;;7.65;100.00
56944;BME280;42848;42.524;12.052;2023-12-22T03:00:06;95591.66;;;7.65;100.00
56944;BME280;42848;42.524;12.052;2023-12-22T03:02:32;95596.53;;;7.72;100.00
56944;BME280;42848;42.524;12.052;2023-12-22T03:04:58;95595.13;;;7.65;100.00
56944;BME280;42848;42.524;12.052;2023-12-22T03:07:24;95598.84;;;7.61;100.00
56944;BME280;42848;42.524;12.052;2023-12-22T03:09:49;95602.28;;;7.70;100.00
56944;BME280;42848;42.524;12.052;2023-12-22T03:12:15;95611.09;;;7.79;100.00
56944;BME280;42848;42.524;12.052;2023-12-22T03:14:40;95604.75;;;7.75;100.00
56944;BME280;42848;42.524;12.052;2023-12-22T03:17:07;95607.81;;;7.74;100.00
56944;BME280;42848;42.524;12.052;2023-12-22T03:19:33;95598.19;;;7.85;100.00
56944;BME280;42848;42.524;12.052;2023-12-22T03:21:59;95600.16;;;7.76;100.00
56944;BME280;42848;42.524;12.052;2023-12-22T03:24:26;95596.19;;;7.73;100.00
56944;BME280;42848;42.524;12.052;2023-12-22T03:26:54;95610.44;;;7.61;100.00
56944;BME280;42848;42.524;12.052;2023-12-22T03:29:20;95601.88;;;7.80;100.00
56944;BME280;42848;42.524;12.052;2023-12-22T03:31:46;95593.25;;;7.87;100.00
56944;BME280;42848;42.524;12.052;2023-12-22T03:34:13;95594.84;;;7.88;100.00
56944;BME280;42848;42.524;12.052;2023-12-22T03:36:39;95591.59;;;7.94;100.00
56944;BME280;42848;42.524;12.052;2023-12-22T03:39:05;95586.06;;;7.91;100.00
56944;BME280;42848;42.524;12.052;2023-12-22T03:41:31;95600.41;;;7.83;100.00
56944;BME280;42848;42.524;12.052;2023-12-22T03:43:57;95592.78;;;7.85;100.00
56944;BME280;42848;42.524;12.052;2023-12-22T03:46:23;95584.09;;;7.79;100.00
56944;BME280;42848;42.524;12.052;2023-12-22T03:48:49;95595.47;;;7.85;100.00
56944;BME280;42848;42.524;12.052;2023-12-22T03:51:15;95591.59;;;7.74;100.00
56944;BME280;42848;42.524;12.052;2023-12-22T03:53:41;95578.47;;;7.63;100.00
56944;BME280;42848;42.524;12.052;2023-12-22T03:56:10;95574.72;;;7.77;100.00
56944;BME280;42848;42.524;12.052;2023-12-22T03:58:37;95582.75;;;7.64;100.00
56944;BME280;42848;42.524;12.052;2023-12-22T04:01:03;95591.19;;;7.63;100.00
56944;BME280;42848;42.524;12.052;2023-12-22T04:03:30;95591.53;;;7.61;100.00
56944;BME280;42848;42.524;12.052;2023-12-22T04:05:55;95585.28;;;7.69;100.00
56944;BME280;42848;42.524;12.052;2023-12-22T04:08:21;95571.56;;;7.75;100.00
56944;BME280;42848;42.524;12.052;2023-12-22T04:10:47;95570.59;;;7.79;100.00
56944;BME280;42848;42.524;12.052;2023-12-22T04:13:13;95581.31;;;7.88;100.00
56944;BME280;42848;42.524;12.052;2023-12-22T04:15:39;95574.41;;;7.99;100.00
56944;BME280;42848;42.524;12.052;2023-12-22T04:18:05;95583.41;;;8.03;100.00
56944;BME280;42848;42.524;12.052;2023-12-22T04:20:31;95581.63;;;8.07;100.00
56944;BME280;42848;42.524;12.052;2023-12-22T04:22:57;95589.38;;;7.96;100.00
56944;BME280;42848;42.524;12.052;2023-12-22T04:25:23;95586.97;;;7.95;100.00
56944;BME280;42848;42.524;12.052;2023-12-22T04:27:51;95588.81;;;7.82;100.00
56944;BME280;42848;42.524;12.052;2023-12-22T04:30:16;95587.63;;;7.92;100.00
56944;BME280;42848;42.524;12.052;2023-12-22T04:32:42;95601.19;;;8.04;100.00
56944;BME280;42848;42.524;12.052;2023-12-22T04:35:08;95601.19;;;8.04;100.00
56944;BME280;42848;42.524;12.052;2023-12-22T04:37:34;95598.03;;;8.02;100.00
56944;BME280;42848;42.524;12.052;2023-12-22T04:40:00;95589.66;;;8.16;100.00
56944;BME280;42848;42.524;12.052;2023-12-22T04:42:25;95590.13;;;8.18;100.00
56944;BME280;42848;42.524;12.052;2023-12-22T04:44:52;95593.69;;;8.10;100.00
56944;BME280;42848;42.524;12.052;2023-12-22T04:47:18;95593.84;;;7.92;100.00
56944;BME280;42848;42.524;12.052;2023-12-22T04:49:43;95596.19;;;7.73;100.00
56944;BME280;42848;42.524;12.052;2023-12-22T04:52:11;95596.47;;;7.80;100.00
56944;BME280;42848;42.524;12.052;2023-12-22T04:54:36;95591.59;;;7.94;100.00
56944;BME280;42848;42.524;12.052;2023-12-22T04:57:02;95597.31;;;8.14;100.00
56944;BME280;42848;42.524;12.052;2023-12-22T04:59:28;95594.50;;;7.89;100.00
56944;BME280;42848;42.524;12.052;2023-12-22T05:01:53;95586.97;;;8.16;100.00
56944;BME280;42848;42.524;12.052;2023-12-22T05:04:19;95575.13;;;7.87;100.00
56944;BME280;42848;42.524;12.052;2023-12-22T05:06:45;95561.94;;;8.07;100.00
56944;BME280;42848;42.524;12.052;2023-12-22T05:09:11;95561.50;;;8.17;100.00
56944;BME280;42848;42.524;12.052;2023-12-22T05:11:38;95553.41;;;8.17;100.00
56944;BME280;42848;42.524;12.052;2023-12-22T05:14:04;95541.56;;;8.21;100.00
56944;BME280;42848;42.524;12.052;2023-12-22T05:16:30;95544.94;;;8.06;100.00
56944;BME280;42848;42.524;12.052;2023-12-22T05:19:00;95531.34;;;7.94;100.00
56944;BME280;42848;42.524;12.052;2023-12-22T05:21:26;95537.03;;;8.13;100.00
56944;BME280;42848;42.524;12.052;2023-12-22T05:23:53;95541.34;;;8.14;100.00
56944;BME280;42848;42.524;12.052;2023-12-22T05:26:20;95539.44;;;8.15;100.00
56944;BME280;42848;42.524;12.052;2023-12-22T05:28:47;95546.13;;;7.96;100.00
56944;BME280;42848;42.524;12.052;2023-12-22T05:31:15;95545.13;;;8.01;100.00
56944;BME280;42848;42.524;12.052;2023-12-22T05:33:41;95551.38;;;7.93;100.00
56944;BME280;42848;42.524;12.052;2023-12-22T05:36:08;95558.13;;;7.87;100.00
56944;BME280;42848;42.524;12.052;2023-12-22T05:38:37;95557.31;;;8.07;100.00
56944;BME280;42848;42.524;12.052;2023-12-22T05:41:04;95553.75;;;7.94;100.00
56944;BME280;42848;42.524;12.052;2023-12-22T05:43:32;95562.47;;;8.00;100.00
56944;BME280;42848;42.524;12.052;2023-12-22T05:45:59;95565.97;;;7.80;100.00
56944;BME280;42848;42.524;12.052;2023-12-22T05:48:28;95555.09;;;7.88;100.00
56944;BME280;42848;42.524;12.052;2023-12-22T05:50:56;95560.94;;;7.90;100.00
56944;BME280;42848;42.524;12.052;2023-12-22T05:53:23;95576.16;;;7.95;100.00
56944;BME280;42848;42.524;12.052;2023-12-22T05:55:48;95583.81;;;7.51;100.00
56944;BME280;42848;42.524;12.052;2023-12-22T05:58:14;95579.22;;;7.73;100.00
56944;BME280;42848;42.524;12.052;2023-12-22T06:00:40;95595.41;;;7.73;100.00
56944;BME280;42848;42.524;12.052;2023-12-22T06:03:05;95590.56;;;7.87;100.00
56944;BME280;42848;42.524;12.052;2023-12-22T06:05:31;95601.41;;;7.99;100.00
56944;BME280;42848;42.524;12.052;2023-12-22T06:07:56;95602.28;;;7.91;100.00
56944;BME280;42848;42.524;12.052;2023-12-22T06:10:22;95601.59;;;7.94;100.00
56944;BME280;42848;42.524;12.052;2023-12-22T06:12:48;95608.34;;;7.88;100.00
56944;BME280;42848;42.524;12.052;2023-12-22T06:15:13;95598.44;;;7.71;100.00
56944;BME280;42848;42.524;12.052;2023-12-22T06:17:39;95616.47;;;7.58;100.00
56944;BME280;42848;42.524;12.052;2023-12-22T06:20:05;95622.06;;;7.53;100.00
56944;BME280;42848;42.524;12.052;2023-12-22T06:22:30;95619.84;;;7.55;100.00
56944;BME280;42848;42.524;12.052;2023-12-22T06:24:58;95620.97;;;7.54;100.00
56944;BME280;42848;42.524;12.052;2023-12-22T06:27:24;95630.19;;;7.53;100.00
56944;BME280;42848;42.524;12.052;2023-12-22T06:29:50;95631.88;;;7.58;100.00
56944;BME280;42848;42.524;12.052;2023-12-22T06:32:16;95637.09;;;7.63;100.00
56944;BME280;42848;42.524;12.052;2023-12-22T06:34:42;95645.91;;;7.81;100.00
56944;BME280;42848;42.524;12.052;2023-12-22T06:37:08;95647.47;;;7.82;100.00
56944;BME280;42848;42.524;12.052;2023-12-22T06:39:36;95645.16;;;7.92;100.00
56944;BME280;42848;42.524;12.052;2023-12-22T06:42:02;95649.72;;;8.01;100.00
56944;BME280;42848;42.524;12.052;2023-12-22T06:44:28;95648.03;;;7.96;100.00
56944;BME280;42848;42.524;12.052;2023-12-22T06:46:57;95659.06;;;7.82;100.00
56944;BME280;42848;42.524;12.052;2023-12-22T06:49:22;95657.31;;;7.86;100.00
56944;BME280;42848;42.524;12.052;2023-12-22T06:51:48;95653.16;;;7.89;100.00
56944;BME280;42848;42.524;12.052;2023-12-22T06:54:13;95654.34;;;8.00;100.00
56944;BME280;42848;42.524;12.052;2023-12-22T06:56:39;95658.94;;;7.99;100.00
56944;BME280;42848;42.524;12.052;2023-12-22T06:59:06;95670.63;;;8.12;100.00
56944;BME280;42848;42.524;12.052;2023-12-22T07:01:33;95665.88;;;8.09;100.00
56944;BME280;42848;42.524;12.052;2023-12-22T07:03:59;95660.38;;;7.76;100.00
56944;BME280;42848;42.524;12.052;2023-12-22T07:06:26;95668.16;;;7.78;100.00
56944;BME280;42848;42.524;12.052;2023-12-22T07:11:43;95668.41;;;7.85;100.00
56944;BME280;42848;42.524;12.052;2023-12-22T07:14:09;95668.69;;;7.92;100.00
56944;BME280;42848;42.524;12.052;2023-12-22T07:16:36;95663.03;;;7.85;100.00
56944;BME280;42848;42.524;12.052;2023-12-22T07:19:02;95654.06;;;7.93;100.00
56944;BME280;42848;42.524;12.052;2023-12-22T07:21:28;95649.78;;;7.92;100.00
56944;BME280;42848;42.524;12.052;2023-12-22T07:23:54;95663.69;;;7.82;100.00
56944;BME280;42848;42.524;12.052;2023-12-22T07:26:20;95659.75;;;8.00;100.00
56944;BME280;42848;42.524;12.052;2023-12-22T07:28:47;95674.78;;;7.89;100.00
56944;BME280;42848;42.524;12.052;2023-12-22T07:31:14;95672.97;;;7.93;100.00
56944;BME280;42848;42.524;12.052;2023-12-22T07:33:40;95684.78;;;7.88;100.00
56944;BME280;42848;42.524;12.052;2023-12-22T07:36:09;95678.84;;;7.95;100.00
56944;BME280;42848;42.524;12.052;2023-12-22T07:38:36;95673.81;;;8.14;100.00
56944;BME280;42848;42.524;12.052;2023-12-22T07:41:02;95676.88;;;8.04;100.00
56944;BME280;42848;42.524;12.052;2023-12-22T07:43:27;95688.63;;;8.08;100.00
56944;BME280;42848;42.524;12.052;2023-12-22T07:45:55;95692.06;;;7.96;100.00
56944;BME280;42848;42.524;12.052;2023-12-22T07:48:20;95698.38;;;8.01;100.00
56944;BME280;42848;42.524;12.052;2023-12-22T07:50:46;95682.28;;;8.04;100.00
56944;BME280;42848;42.524;12.052;2023-12-22T07:53:12;95685.88;;;8.17;100.00
56944;BME280;42848;42.524;12.052;2023-12-22T07:55:37;95690.59;;;8.20;100.00
56944;BME280;42848;42.524;12.052;2023-12-22T07:58:05;95697.00;;;8.15;100.00
56944;BME280;42848;42.524;12.052;2023-12-22T08:00:30;95696.69;;;8.38;100.00
56944;BME280;42848;42.524;12.052;2023-12-22T08:02:56;95702.56;;;8.40;100.00
56944;BME280;42848;42.524;12.052;2023-12-22T08:05:22;95704.13;;;8.41;100.00
56944;BME280;42848;42.524;12.052;2023-12-22T08:07:47;95701.63;;;8.57;100.00
56944;BME280;42848;42.524;12.052;2023-12-22T08:10:13;95698.09;;;8.44;100.00
56944;BME280;42848;42.524;12.052;2023-12-22T08:12:38;95709.34;;;8.46;100.00
56944;BME280;42848;42.524;12.052;2023-12-22T08:15:05;95719.50;;;8.49;100.00
56944;BME280;42848;42.524;12.052;2023-12-22T08:17:31;95725.19;;;8.56;100.00
56944;BME280;42848;42.524;12.052;2023-12-22T08:19:57;95720.03;;;8.63;100.00
56944;BME280;42848;42.524;12.052;2023-12-22T08:22:23;95726.19;;;8.84;100.00
56944;BME280;42848;42.524;12.052;2023-12-22T08:24:49;95731.88;;;8.92;100.00
56944;BME280;42848;42.524;12.052;2023-12-22T08:27:15;95727.34;;;8.96;100.00
56944;BME280;42848;42.524;12.052;2023-12-22T08:29:40;95727.31;;;8.83;100.00
56944;BME280;42848;42.524;12.052;2023-12-22T08:32:06;95717.44;;;8.88;100.00
56944;BME280;42848;42.524;12.052;2023-12-22T08:34:32;95724.47;;;9.13;100.00
56944;BME280;42848;42.524;12.052;2023-12-22T08:36:57;95739.75;;;9.18;100.00
56944;BME280;42848;42.524;12.052;2023-12-22T08:39:23;95755.81;;;9.02;100.00
56944;BME280;42848;42.524;12.052;2023-12-22T08:41:51;95752.66;;;9.00;100.00
56944;BME280;42848;42.524;12.052;2023-12-22T08:44:18;95756.25;;;9.04;100.00
56944;BME280;42848;42.524;12.052;2023-12-22T08:46:44;95762.63;;;9.08;100.00
56944;BME280;42848;42.524;12.052;2023-12-22T08:49:09;95759.94;;;9.20;100.00
56944;BME280;42848;42.524;12.052;2023-12-22T08:51:35;95763.44;;;9.21;100.00
56944;BME280;42848;42.524;12.052;2023-12-22T08:54:01;95760.88;;;9.24;100.00
56944;BME280;42848;42.524;12.052;2023-12-22T08:56:26;95774.69;;;9.44;100.00
56944;BME280;42848;42.524;12.052;2023-12-22T08:58:53;95762.63;;;9.53;100.00
56944;BME280;42848;42.524;12.052;2023-12-22T09:01:21;95760.69;;;9.54;100.00
56944;BME280;42848;42.524;12.052;2023-12-22T09:03:48;95761.81;;;9.53;100.00
56944;BME280;42848;42.524;12.052;2023-12-22T09:06:17;95763.75;;;9.64;100.00
56944;BME280;42848;42.524;12.052;2023-12-22T09:08:44;95754.59;;;9.69;100.00
56944;BME280;42848;42.524;12.052;2023-12-22T09:11:15;95763.84;;;9.68;100.00
56944;BME280;42848;42.524;12.052;2023-12-22T09:13:41;95764.34;;;9.70;100.00
56944;BME280;42848;42.524;12.052;2023-12-22T09:16:08;95762.97;;;9.64;100.00
56944;BME280;42848;42.524;12.052;2023-12-22T09:18:35;95770.19;;;9.84;100.00
56944;BME280;42848;42.524;12.052;2023-12-22T09:21:01;95773.34;;;9.74;100.00
56944;BME280;42848;42.524;12.052;2023-12-22T09:23:28;95776.66;;;9.80;100.00
56944;BME280;42848;42.524;12.052;2023-12-22T09:25:54;95776.50;;;9.76;100.00
56944;BME280;42848;42.524;12.052;2023-12-22T09:28:20;95772.91;;;9.84;100.00
56944;BME280;42848;42.524;12.052;2023-12-22T09:30:45;95782.41;;;9.90;100.00
56944;BME280;42848;42.524;12.052;2023-12-22T09:33:11;95781.50;;;9.86;100.00
56944;BME280;42848;42.524;12.052;2023-12-22T09:35:37;95785.22;;;9.94;100.00
56944;BME280;42848;42.524;12.052;2023-12-22T09:38:07;95777.44;;;10.05;100.00
56944;BME280;42848;42.524;12.052;2023-12-22T09:40:35;95778.34;;;10.21;100.00
56944;BME280;42848;42.524;12.052;2023-12-22T09:43:02;95774.59;;;10.13;100.00
56944;BME280;42848;42.524;12.052;2023-12-22T09:45:30;95781.28;;;10.16;100.00
56944;BME280;42848;42.524;12.052;2023-12-22T09:47:59;95772.56;;;10.10;100.00
56944;BME280;42848;42.524;12.052;2023-12-22T09:50:26;95777.44;;;10.05;100.00
56944;BME280;42848;42.524;12.052;2023-12-22T09:52:52;95771.34;;;10.08;100.00
56944;BME280;42848;42.524;12.052;2023-12-22T09:55:18;95773.72;;;10.09;100.00
56944;BME280;42848;42.524;12.052;2023-12-22T09:57:47;95767.72;;;10.16;100.00
56944;BME280;42848;42.524;12.052;2023-12-22T10:00:14;95785.38;;;10.22;100.00
56944;BME280;42848;42.524;12.052;2023-12-22T10:02:40;95776.09;;;10.35;100.00
56944;BME280;42848;42.524;12.052;2023-12-22T10:05:09;95787.84;;;10.27;100.00
56944;BME280;42848;42.524;12.052;2023-12-22T10:07:35;95784.72;;;10.25;100.00
56944;BME280;42848;42.524;12.052;2023-12-22T10:10:02;95778.50;;;10.24;100.00
56944;BME280;42848;42.524;12.052;2023-12-22T10:12:29;95795.28;;;10.18;100.00
56944;BME280;42848;42.524;12.052;2023-12-22T10:14:56;95779.72;;;10.27;100.00
56944;BME280;42848;42.524;12.052;2023-12-22T10:17:22;95783.75;;;10.21;100.00
56944;BME280;42848;42.524;12.052;2023-12-22T10:19:48;95781.19;;;10.24;100.00
56944;BME280;42848;42.524;12.052;2023-12-22T10:22:13;95781.72;;;10.18;100.00
56944;BME280;42848;42.524;12.052;2023-12-22T10:24:46;95778.44;;;10.12;100.00
56944;BME280;42848;42.524;12.052;2023-12-22T10:27:17;95769.41;;;10.20;100.00
56944;BME280;42848;42.524;12.052;2023-12-22T10:29:50;95776.56;;;10.25;100.00
56944;BME280;42848;42.524;12.052;2023-12-22T10:32:16;95761.28;;;10.33;100.00
56944;BME280;42848;42.524;12.052;2023-12-22T10:34:42;95770.00;;;10.26;100.00
56944;BME280;42848;42.524;12.052;2023-12-22T10:37:10;95765.25;;;10.35;100.00
56944;BME280;42848;42.524;12.052;2023-12-22T10:39:36;95767.28;;;10.38;100.00
56944;BME280;42848;42.524;12.052;2023-12-22T10:42:03;95757.66;;;10.41;100.00
56944;BME280;42848;42.524;12.052;2023-12-22T10:44:29;95759.13;;;10.38;100.00
56944;BME280;42848;42.524;12.052;2023-12-22T10:46:56;95752.56;;;10.39;100.00
56944;BME280;42848;42.524;12.052;2023-12-22T10:49:22;95751.34;;;10.37;100.00
56944;BME280;42848;42.524;12.052;2023-12-22T10:51:49;95752.81;;;10.34;100.00
56944;BME280;42848;42.524;12.052;2023-12-22T10:54:16;95740.09;;;10.50;100.00
56944;BME280;42848;42.524;12.052;2023-12-22T10:56:42;95752.34;;;10.44;100.00
56944;BME280;42848;42.524;12.052;2023-12-22T10:59:11;95759.34;;;10.45;100.00
56944;BME280;42848;42.524;12.052;2023-12-22T11:01:37;95757.78;;;10.44;100.00
56944;BME280;42848;42.524;12.052;2023-12-22T11:04:07;95763.06;;;10.41;100.00
56944;BME280;42848;42.524;12.052;2023-12-22T11:06:36;95755.28;;;10.39;100.00
56944;BME280;42848;42.524;12.052;2023-12-22T11:09:09;95751.22;;;10.45;100.00
56944;BME280;42848;42.524;12.052;2023-12-22T11:11:37;95753.72;;;10.38;100.00
56944;BME280;42848;42.524;12.052;2023-12-22T11:14:05;95752.22;;;10.41;100.00
56944;BME280;42848;42.524;12.052;2023-12-22T11:16:33;95754.16;;;10.40;100.00
56944;BME280;42848;42.524;12.052;2023-12-22T11:19:00;95744.44;;;10.39;100.00
56944;BME280;42848;42.524;12.052;2023-12-22T11:21:27;95747.16;;;10.39;100.00
56944;BME280;42848;42.524;12.052;2023-12-22T11:23:54;95746.22;;;10.47;100.00
56944;BME280;42848;42.524;12.052;2023-12-22T11:26:22;95733.66;;;10.55;100.00
56944;BME280;42848;42.524;12.052;2023-12-22T11:28:50;95726.09;;;10.48;100.00
56944;BME280;42848;42.524;12.052;2023-12-22T11:31:17;95719.31;;;10.54;100.00
56944;BME280;42848;42.524;12.052;2023-12-22T11:33:48;95715.38;;;10.52;100.00
56944;BME280;42848;42.524;12.052;2023-12-22T11:36:15;95712.50;;;10.61;100.00
56944;BME280;42848;42.524;12.052;2023-12-22T11:38:42;95715.91;;;10.58;100.00
56944;BME280;42848;42.524;12.052;2023-12-22T11:41:16;95710.69;;;10.65;100.00
56944;BME280;42848;42.524;12.052;2023-12-22T11:43:44;95706.59;;;10.71;100.00
56944;BME280;42848;42.524;12.052;2023-12-22T11:46:10;95706.59;;;10.71;100.00
56944;BME280;42848;42.524;12.052;2023-12-22T11:48:37;95704.84;;;10.78;100.00
56944;BME280;42848;42.524;12.052;2023-12-22T11:51:15;95699.09;;;10.80;100.00
56944;BME280;42848;42.524;12.052;2023-12-22T11:53:41;95703.53;;;10.72;100.00
56944;BME280;42848;42.524;12.052;2023-12-22T11:56:09;95706.09;;;10.81;100.00
56944;BME280;42848;42.524;12.052;2023-12-22T12:01:18;95694.34;;;10.77;100.00
56944;BME280;42848;42.524;12.052;2023-12-22T12:03:51;95697.75;;;10.74;100.00
56944;BME280;42848;42.524;12.052;2023-12-22T12:08:50;95694.03;;;10.94;100.00
56944;BME280;42848;42.524;12.052;2023-12-22T12:11:17;95696.22;;;10.89;100.00
56944;BME280;42848;42.524;12.052;2023-12-22T12:13:47;95677.38;;;10.96;100.00
56944;BME280;42848;42.524;12.052;2023-12-22T12:16:22;95681.44;;;11.02;100.00
56944;BME280;42848;42.524;12.052;2023-12-22T12:18:47;95681.09;;;11.03;100.00
56944;BME280;42848;42.524;12.052;2023-12-22T12:21:15;95684.25;;;11.05;100.00
56944;BME280;42848;42.524;12.052;2023-12-22T12:23:41;95680.41;;;11.06;100.00
56944;BME280;42848;42.524;12.052;2023-12-22T12:26:08;95685.38;;;11.04;100.00
56944;BME280;42848;42.524;12.052;2023-12-22T12:28:35;95677.22;;;11.04;100.00
56944;BME280;42848;42.524;12.052;2023-12-22T12:31:06;95684.44;;;11.13;100.00
56944;BME280;42848;42.524;12.052;2023-12-22T12:33:32;95692.16;;;11.10;100.00
56944;BME280;42848;42.524;12.052;2023-12-22T12:35:59;95682.16;;;11.15;100.00
56944;BME280;42848;42.524;12.052;2023-12-22T12:38:53;95680.75;;;11.21;100.00
56944;BME280;42848;42.524;12.052;2023-12-22T12:41:31;95685.00;;;11.34;100.00
56944;BME280;42848;42.524;12.052;2023-12-22T12:44:03;95686.38;;;11.28;100.00
56944;BME280;42848;42.524;12.052;2023-12-22T12:46:35;95676.91;;;11.22;100.00
56944;BME280;42848;42.524;12.052;2023-12-22T12:49:05;95679.38;;;11.27;100.00
56944;BME280;42848;42.524;12.052;2023-12-22T12:51:52;95672.97;;;11.19;100.00
56944;BME280;42848;42.524;12.052;2023-12-22T12:54:17;95665.50;;;11.32;100.00
56944;BME280;42848;42.524;12.052;2023-12-22T12:56:44;95671.84;;;11.36;100.00